Share

Emporia, KS

2:03 AM CDT on April 24, 2014 (GMT -0500)
East Emporia Kansas (KKSEMPOR3) Elev 1106 ft | 38.39 °N, 96.12 °W | Change Station

Current weather conditions updated 7 minutes ago

Clear
Clear
72.0 °F
Feels Like 76 °F
N
9.9
Wind Variable Wind from South
Sunrise 6:36 AM
Sunset 8:09 PM
Moon Waning Crescent

Today is forecast to be Much Cooler than yesterday. Showers and thunderstorms.

Pressure 29.53 in
Visibility 10.0 miles
Clouds Clear
Heat Index 76 °F
Dew Point 58 °F
Humidity 61%
Rainfall 0.00 in
Snow Depth Not available.
UV 0 out of 16
Pollen 11.10 out of 12
Air Quality Not available.
Flu Activity No Activity
METAR KEMP 240653Z AUTO 19023G33KT 10SM CLR 22/13 A2955 RMK AO2 PK WND 17036/0613 SLP998 T02170128

More Conditions Fewer Conditions

Pressure 29.53 in
Visibility 10.0 miles
Clouds Clear
Heat Index 76 °F
Dew Point 58 °F
Humidity 61%
Rainfall 0.00 in
Snow Depth Not available.
UV 0 out of 16
Pollen 11.10 out of 12
Air Quality Not available.
Flu Activity No Activity
METAR KEMP 240653Z AUTO 19023G33KT 10SM CLR 22/13 A2955 RMK AO2 PK WND 17036/0613 SLP998 T02170128

More Conditions Fewer Conditions

10-Day Weather Forecast

Almanac

Astronomy

Apr. 24, 2014 Rise Set
Actual Time 6:36 AM CDT 8:09 PM CDT
Civil Twilight 6:08 AM CDT 8:37 PM CDT
Nautical Twilight 5:34 AM CDT 9:11 PM CDT
Astronomical Twilight 4:59 AM CDT 9:47 PM CDT
Moon 3:44 AM CDT 3:30 PM CDT
Length of Visible Light 14h 29m
Length of Day
13h 33m
Tomorrow will be 2m 15s longer.
Waning Crescent, 28% of the Moon is Illuminated
Today
Waning Crescent
Apr 29
New
May 6
First Quarter
May 14
Full
May 21
Last Quarter

Today's Extremes

State Highs State Lows

Community

  • Stacked
    Stacked
  • clouds approaching Red Sox Nation
    clouds approaching Red Sox Nation
  • Balance
    Balance
  • Nestled In
    Nestled In
  • Stunning Sunrise
    Stunning Sunrise

WunderPhotos

Upload Photos

1,704,570 photos uploaded!

WunderBlogs® & News

Nearby

Snow Depth

Station Depth Elevation
No new snow has been reported.

Coastal Water Temperatures

Place Temperature
No Stations Reporting

Earthquake Activity

City Distance Mag. Time & Date
Enid, Oklahoma 154 miles 2.9 1:11 PM CDT
2014-04-19
Medford, Oklahoma 151 miles 2.9 3:07 AM CDT
2014-04-19
Helena, Oklahoma 163 miles 3.4 6:50 AM CDT
2014-04-17
Minimum magnitude displayed is 2.5.

Nearby Weather Stations

Station Location Temp. Heat Index Dew Point Humidity Wind Precip. Elev Updated Type
East Emporia Kansas, Emporia, KS 72.0 °F 76 °F 58 °F 61% South  at  9.9 mph - / hr 1106 ft 1:55 AM CDT Normal
T-K Weather Station West Hartford, Kansa, Hartford, KS 72.7 °F 76 °F 58 °F 60% SSW  at  13.5 mph - / hr 1129 ft 1:28 AM CDT Normal
RAWS TALLGRASS PRAIRIE KS, Strong City, KS 71 °F 77 °F 53 °F 53% South  at  15 mph 0.00 in / hr 1230 ft 1:30 AM CDT MADIS

Show More Stations Show Fewer Stations

What do you think?

We're not finished. Please let us know what you like, what you don't like, and what you are still missing.